Time;durP1;ratioP1;P1;durP2;ratioP2;P2;SDS_P1;SDS_P2;PMS_P1;PMS_P2;Temp;Humidity;BMP_temperature;BMP_pressure;BME280_temperature;BME280_humidity;BME280_pressure;Samples;Min_cycle;Max_cycle;Signal;HPM_P1;HPM_P2
2022/07/21 00:02:08;;;;;;;29.05;19.80;;;;;;;24.23;58.30;94764.78;4999807;28;20026;-90
2022/07/21 00:04:34;;;;;;;25.85;19.33;;;;;;;24.32;58.73;94768.09;5015715;28;20427;-90
2022/07/21 00:06:59;;;;;;;27.35;18.85;;;;;;;24.46;58.50;94761.53;5015586;28;20068;-90
2022/07/21 00:09:25;;;;;;;27.02;19.27;;;;;;;24.08;60.71;94759.09;5016130;28;20126;-89
2022/07/21 00:11:50;;;;;;;26.05;19.30;;;;;;;23.86;63.70;94765.78;4999719;28;20029;-90
2022/07/21 00:14:16;;;;;;;27.38;18.65;;;;;;;23.42;66.46;94758.50;5015348;28;20052;-90
2022/07/21 00:16:42;;;;;;;25.23;18.08;;;;;;;23.55;65.88;94757.34;4999648;28;20088;-90
2022/07/21 00:19:08;;;;;;;25.55;17.45;;;;;;;23.66;64.95;94759.50;4999146;28;20435;-90
2022/07/21 00:21:34;;;;;;;26.70;16.70;;;;;;;23.58;65.51;94758.53;5018730;28;20022;-90
2022/07/21 00:23:59;;;;;;;22.75;16.75;;;;;;;23.53;66.14;94754.25;5003086;28;20022;-89
2022/07/21 00:26:25;;;;;;;24.80;17.70;;;;;;;23.46;66.01;94758.63;5019571;28;20057;-89
2022/07/21 00:28:50;;;;;;;26.33;19.33;;;;;;;23.42;66.21;94755.84;5003381;28;20028;-89
2022/07/21 00:31:16;;;;;;;31.45;18.52;;;;;;;23.03;69.50;94750.94;5003125;28;20026;-89
2022/07/21 00:33:41;;;;;;;28.08;19.08;;;;;;;22.74;71.24;94758.09;5019327;28;20029;-89
2022/07/21 00:36:07;;;;;;;24.83;18.02;;;;;;;22.75;71.17;94756.97;5019210;28;20029;-90
2022/07/21 00:38:33;;;;;;;29.23;19.33;;;;;;;22.76;71.88;94758.53;5019010;28;20026;-90
2022/07/21 00:40:58;;;;;;;25.17;19.20;;;;;;;22.81;70.03;94752.16;5020355;28;20061;-90
2022/07/21 00:43:23;;;;;;;27.75;19.40;;;;;;;22.95;68.59;94749.16;5018946;28;20029;-90
2022/07/21 00:45:53;;;;;;;23.98;17.85;;;;;;;23.16;68.05;94754.34;5018997;28;20022;-90
2022/07/21 00:48:18;;;;;;;31.00;20.02;;;;;;;22.97;70.43;94757.59;5019135;28;20067;-90
2022/07/21 00:50:43;;;;;;;27.95;20.08;;;;;;;22.83;69.91;94749.97;5002689;28;20033;-89
2022/07/21 00:53:09;;;;;;;26.17;19.13;;;;;;;22.93;69.47;94744.13;5019196;28;20061;-90
2022/07/21 00:55:38;;;;;;;27.50;20.40;;;;;;;22.96;69.05;94745.34;5018600;28;20112;-89
2022/07/21 00:58:03;;;;;;;26.88;18.98;;;;;;;22.97;70.12;94744.25;5018926;28;20029;-90
2022/07/21 01:00:30;;;;;;;24.83;18.50;;;;;;;23.00;69.25;94746.22;5002854;28;20489;-89
2022/07/21 01:02:56;;;;;;;29.85;18.88;;;;;;;22.82;70.03;94743.81;5002875;28;20073;-90
2022/07/21 01:05:22;;;;;;;26.60;19.35;;;;;;;22.75;70.09;94740.94;5018468;28;20021;-88
2022/07/21 01:07:50;;;;;;;27.88;19.95;;;;;;;22.94;70.61;94740.34;5018560;28;20022;-89
2022/07/21 01:10:17;;;;;;;25.35;18.95;;;;;;;22.98;69.78;94743.13;5007053;28;20124;-89
2022/07/21 01:12:43;;;;;;;25.63;19.20;;;;;;;22.95;68.31;94733.13;5002221;28;20021;-89
2022/07/21 01:15:10;;;;;;;27.98;18.40;;;;;;;22.82;70.78;94735.81;5011098;28;20032;-89
2022/07/21 01:17:36;;;;;;;26.10;18.40;;;;;;;22.69;71.49;94736.94;5002100;28;20450;-89
2022/07/21 01:20:08;;;;;;;25.25;18.58;;;;;;;22.63;74.30;94731.03;5032223;28;20029;-89
2022/07/21 01:22:36;;;;;;;28.25;18.95;;;;;;;22.72;71.28;94731.72;5016084;28;20140;-89
2022/07/21 01:25:02;;;;;;;26.70;19.02;;;;;;;22.64;72.40;94727.25;5020809;28;20032;-89
2022/07/21 01:27:28;;;;;;;29.15;17.92;;;;;;;22.65;70.61;94736.81;5002163;28;20029;-89
2022/07/21 01:29:54;;;;;;;25.63;17.10;;;;;;;22.61;72.00;94732.50;5037211;28;20021;-89
2022/07/21 01:32:20;;;;;;;27.98;16.83;;;;;;;22.60;71.63;94723.72;5038381;28;20021;-90
2022/07/21 01:34:45;;;;;;;25.45;16.38;;;;;;;22.59;73.05;94725.63;5021354;28;20026;-90
2022/07/21 01:37:11;;;;;;;25.42;14.50;;;;;;;22.69;72.76;94726.25;5021335;28;20138;-90
2022/07/21 01:42:35;;;;;;;21.17;14.48;;;;;;;22.73;71.45;94727.94;5038838;28;20410;-89
2022/07/21 01:45:02;;;;;;;27.65;15.63;;;;;;;22.53;74.34;94720.84;5037862;28;20064;-90
2022/07/21 01:47:27;;;;;;;25.70;15.63;;;;;;;22.35;75.56;94720.25;5037533;28;20032;-89
2022/07/21 01:49:53;;;;;;;22.80;15.25;;;;;;;22.40;75.05;94726.16;5037794;28;20033;-89
2022/07/21 01:52:18;;;;;;;21.58;14.00;;;;;;;22.64;73.60;94723.81;5038870;28;20061;-89
2022/07/21 01:54:44;;;;;;;23.92;14.95;;;;;;;22.57;72.85;94725.16;5037641;28;20033;-89
2022/07/21 01:57:10;;;;;;;20.33;14.95;;;;;;;22.62;71.59;94720.72;5037834;28;20334;-90
2022/07/21 01:59:35;;;;;;;19.77;13.88;;;;;;;22.36;75.75;94721.81;5020804;28;20040;-90
2022/07/21 02:02:01;;;;;;;25.25;14.10;;;;;;;22.34;73.67;94726.72;5037273;28;20141;-90
2022/07/21 02:04:27;;;;;;;20.00;14.05;;;;;;;22.43;72.95;94730.03;5020829;28;20096;-90
2022/07/21 02:06:56;;;;;;;24.98;14.05;;;;;;;22.34;73.70;94726.72;5021050;28;20029;-90
2022/07/21 02:09:21;;;;;;;25.60;14.15;;;;;;;22.52;72.84;94727.25;5021247;28;20095;-90
2022/07/21 02:11:47;;;;;;;22.58;13.73;;;;;;;22.61;70.93;94725.25;5020721;28;20041;-90
2022/07/21 02:14:12;;;;;;;22.65;14.52;;;;;;;22.55;69.62;94726.63;5020461;28;20037;-89
2022/07/21 02:16:38;;;;;;;20.20;14.15;;;;;;;22.79;67.20;94723.13;5020949;28;20030;-89
2022/07/21 02:19:03;;;;;;;18.73;13.50;;;;;;;22.90;67.95;94715.44;5020912;28;20037;-90
2022/07/21 02:21:29;;;;;;;21.05;14.00;;;;;;;22.94;68.30;94721.63;5037193;28;20115;-90
2022/07/21 02:23:54;;;;;;;20.75;14.93;;;;;;;22.90;68.16;94720.78;5020645;28;20037;-90
2022/07/21 02:26:19;;;;;;;18.92;13.68;;;;;;;22.86;67.78;94714.56;5036810;28;20032;-90
2022/07/21 02:28:45;;;;;;;19.17;13.73;;;;;;;22.73;69.22;94722.59;5036719;28;20069;-89
2022/07/21 02:31:10;;;;;;;19.42;14.30;;;;;;;22.67;69.09;94723.16;5020675;28;20128;-90
2022/07/21 02:33:36;;;;;;;18.30;13.85;;;;;;;22.78;67.78;94723.47;5037759;28;20343;-90
2022/07/21 02:36:02;;;;;;;23.75;14.07;;;;;;;22.90;66.31;94715.44;5036722;28;20486;-90
2022/07/21 02:38:27;;;;;;;20.73;14.35;;;;;;;22.90;66.00;94710.09;5020152;28;20040;-90
2022/07/21 02:40:53;;;;;;;19.60;14.05;;;;;;;22.89;65.63;94708.53;5036506;28;20091;-89
2022/07/21 02:43:18;;;;;;;20.77;14.60;;;;;;;23.00;63.51;94706.94;5036449;28;20033;-90
2022/07/21 02:45:44;;;;;;;25.90;14.95;;;;;;;22.73;66.13;94711.91;5020123;28;20048;-90
2022/07/21 02:48:11;;;;;;;21.67;14.65;;;;;;;22.67;66.87;94709.78;5036635;28;20083;-89
2022/07/21 02:50:39;;;;;;;21.02;14.02;;;;;;;22.77;66.03;94709.34;5036557;28;20119;-90
2022/07/21 02:53:14;;;;;;;19.23;14.07;;;;;;;22.82;64.76;94711.78;5020205;28;20362;-90
2022/07/21 02:55:40;;;;;;;19.13;14.82;;;;;;;22.82;64.75;94714.44;5020242;28;20029;-90
2022/07/21 02:58:13;;;;;;;23.75;15.35;;;;;;;22.60;68.18;94713.03;5036123;28;20033;-89
2022/07/21 03:00:43;;;;;;;20.38;14.20;;;;;;;22.65;66.14;94709.34;5036923;28;20036;-90
2022/07/21 03:03:09;;;;;;;24.17;14.77;;;;;;;22.69;65.15;94712.91;5036010;28;20022;-89
2022/07/21 03:05:35;;;;;;;20.08;14.63;;;;;;;22.49;67.42;94712.72;5035987;28;20485;-88
2022/07/21 03:08:01;;;;;;;21.25;14.27;;;;;;;22.42;71.38;94704.44;5036252;28;20036;-89
2022/07/21 03:10:27;;;;;;;25.25;15.52;;;;;;;22.02;76.08;94705.91;5019896;28;20033;-89
2022/07/21 03:12:52;;;;;;;23.52;14.77;;;;;;;21.87;75.20;94701.97;5010951;28;20330;-89
2022/07/21 03:15:21;;;;;;;19.10;14.57;;;;;;;21.84;74.80;94702.63;5035927;28;20037;-89
2022/07/21 03:17:46;;;;;;;25.77;13.98;;;;;;;21.59;77.73;94707.88;5016911;28;20030;-88
2022/07/21 03:20:12;;;;;;;20.33;14.88;;;;;;;21.65;74.93;94706.59;5018041;28;20029;-89
2022/07/21 03:22:38;;;;;;;20.88;14.98;;;;;;;21.77;73.33;94702.41;5022037;28;20030;-89
2022/07/21 03:25:04;;;;;;;19.00;13.73;;;;;;;21.88;73.66;94707.00;5035959;28;20335;-89
2022/07/21 03:27:30;;;;;;;22.52;15.07;;;;;;;22.09;70.34;94708.78;5035887;28;20021;-90
2022/07/21 03:29:55;;;;;;;19.30;13.63;;;;;;;22.08;71.87;94701.13;5026146;28;20029;-88
2022/07/21 03:32:23;;;;;;;20.88;13.88;;;;;;;22.09;71.90;94702.69;5027875;28;20037;-89
2022/07/21 03:34:49;;;;;;;20.05;14.02;;;;;;;22.07;71.67;94704.91;5035761;28;20036;-89
2022/07/21 03:37:14;;;;;;;20.55;14.23;;;;;;;22.17;71.72;94712.47;5036853;28;20339;-89
2022/07/21 03:39:40;;;;;;;18.95;13.98;;;;;;;22.27;69.92;94705.91;5019554;28;20123;-89
2022/07/21 03:42:15;;;;;;;19.65;14.55;;;;;;;22.26;70.58;94710.47;5019591;28;20029;-89
2022/07/21 03:44:40;;;;;;;27.17;14.80;;;;;;;22.15;71.58;94712.78;5035701;28;20033;-88
2022/07/21 03:47:06;;;;;;;21.83;14.80;;;;;;;21.95;72.06;94708.31;5035951;28;20403;-88
2022/07/21 03:49:31;;;;;;;24.17;14.30;;;;;;;21.96;75.55;94704.56;5035952;28;20120;-89
2022/07/21 03:51:56;;;;;;;23.25;15.00;;;;;;;21.84;73.74;94700.75;5035640;28;20083;-88
2022/07/21 03:54:22;;;;;;;20.42;14.18;;;;;;;22.02;72.94;94705.91;5019323;28;20033;-88
2022/07/21 03:56:47;;;;;;;17.60;13.85;;;;;;;21.94;74.38;94710.22;5039356;28;20121;-88
2022/07/21 03:59:13;;;;;;;22.60;14.52;;;;;;;21.94;73.97;94714.75;5023413;28;20040;-89
2022/07/21 04:01:38;;;;;;;24.80;14.85;;;;;;;21.83;74.31;94711.75;5023731;28;20057;-84
2022/07/21 04:04:04;;;;;;;21.88;13.82;;;;;;;21.84;72.85;94711.44;5023060;28;20025;-84
2022/07/21 04:06:29;;;;;;;18.65;14.23;;;;;;;21.77;75.05;94716.53;5040544;28;20030;-84
2022/07/21 04:08:54;;;;;;;21.98;13.88;;;;;;;21.95;73.24;94711.78;5040464;28;20350;-84
2022/07/21 04:11:20;;;;;;;17.25;13.43;;;;;;;22.04;71.75;94706.34;5039225;28;20036;-85
2022/07/21 04:13:45;;;;;;;20.13;14.02;;;;;;;21.99;72.29;94717.22;5022855;28;20033;-84
2022/07/21 04:16:11;;;;;;;19.83;13.57;;;;;;;22.10;71.38;94723.69;5022718;28;20087;-85
2022/07/21 04:18:36;;;;;;;18.20;13.23;;;;;;;22.11;71.32;94716.47;5039154;28;20033;-84
2022/07/21 04:21:02;;;;;;;20.63;14.10;;;;;;;21.98;74.12;94718.34;5039017;28;20357;-84
2022/07/21 04:23:27;;;;;;;17.67;13.50;;;;;;;22.06;72.25;94714.78;5038920;28;20038;-84
2022/07/21 04:25:53;;;;;;;17.30;11.85;;;;;;;22.12;72.75;94710.81;5022647;28;20036;-84
2022/07/21 04:28:18;;;;;;;19.35;13.40;;;;;;;22.17;74.15;94720.47;5039128;28;20482;-84
2022/07/21 04:30:44;;;;;;;18.08;13.63;;;;;;;22.05;73.80;94721.22;5038834;28;20040;-84
2022/07/21 04:33:09;;;;;;;25.48;12.55;;;;;;;22.22;72.58;94716.78;5022795;28;20033;-84
2022/07/21 04:35:35;;;;;;;19.17;13.10;;;;;;;22.14;74.94;94715.78;5039257;28;20036;-84
2022/07/21 04:38:01;;;;;;;20.08;11.90;;;;;;;22.00;77.52;94710.78;5039993;28;20095;-84
2022/07/21 04:40:26;;;;;;;21.98;13.40;;;;;;;22.00;75.10;94710.78;5038924;28;20025;-85
2022/07/21 04:42:52;;;;;;;22.25;12.95;;;;;;;21.99;78.77;94718.00;5022554;28;20030;-84
2022/07/21 04:45:17;;;;;;;18.58;12.98;;;;;;;22.27;79.21;94711.25;5039827;28;20033;-84
2022/07/21 04:47:54;;;;;;;16.33;11.98;;;;;;;22.47;75.92;94720.25;5038631;28;20022;-84
2022/07/21 04:50:23;;;;;;;17.67;12.65;;;;;;;22.63;73.93;94716.94;5022318;28;20022;-85
2022/07/21 04:52:49;;;;;;;22.30;12.45;;;;;;;22.79;73.15;94719.66;5038605;28;20150;-85
2022/07/21 04:55:15;;;;;;;19.65;12.65;;;;;;;22.90;72.06;94725.34;5039547;28;20385;-85
2022/07/21 04:57:45;;;;;;;16.60;12.65;;;;;;;22.72;73.87;94721.03;5038370;28;20078;-85
2022/07/21 05:00:15;;;;;;;19.13;12.88;;;;;;;22.97;76.08;94728.22;5038385;28;20028;-85
2022/07/21 05:02:41;;;;;;;19.52;12.32;;;;;;;23.10;76.29;94728.97;5021757;28;20144;-85
2022/07/21 05:05:07;;;;;;;15.98;11.98;;;;;;;23.06;75.77;94722.72;5038315;28;20373;-85
2022/07/21 05:07:33;;;;;;;17.92;11.73;;;;;;;22.95;74.67;94728.53;5038261;28;20025;-85
2022/07/21 05:09:59;;;;;;;17.33;12.80;;;;;;;23.19;73.72;94729.59;5039318;28;20025;-85
2022/07/21 05:12:27;;;;;;;14.82;11.50;;;;;;;23.34;71.30;94735.38;5021554;28;20119;-85
2022/07/21 05:14:55;;;;;;;17.25;12.27;;;;;;;23.16;73.35;94739.06;5037690;28;20041;-85
2022/07/21 05:17:21;;;;;;;18.33;12.60;;;;;;;22.82;85.06;94727.03;5037925;28;20044;-85
2022/07/21 05:19:51;;;;;;;15.13;11.13;;;;;;;23.01;83.40;94726.41;5038978;28;20435;-85
2022/07/21 05:22:19;;;;;;;17.08;12.00;;;;;;;23.39;78.08;94730.56;5032993;28;20025;-85
2022/07/21 05:24:47;;;;;;;17.20;11.73;;;;;;;23.61;76.56;94733.81;5010483;28;20350;-85
2022/07/21 05:27:12;;;;;;;20.67;12.48;;;;;;;23.53;70.60;94729.38;5038988;28;20336;-85
2022/07/21 05:29:50;;;;;;;;;;;;;;;;;;;;;
2022/07/21 05:32:16;;;;;;;17.98;11.95;;;;;;;23.81;70.77;94723.22;5038163;28;20025;-85
2022/07/21 05:34:44;;;;;;;17.00;11.80;;;;;;;24.08;70.47;94724.28;5021660;28;20395;-85
2022/07/21 05:37:16;;;;;;;19.05;11.70;;;;;;;24.27;68.31;94722.84;5021555;28;20026;-84
2022/07/21 05:39:42;;;;;;;20.60;12.82;;;;;;;24.05;67.29;94719.66;5038945;28;20025;-85
2022/07/21 05:42:07;;;;;;;14.57;10.85;;;;;;;24.17;72.29;94718.00;5038656;28;20453;-85
2022/07/21 05:44:33;;;;;;;17.02;11.93;;;;;;;24.38;73.98;94723.09;5030715;28;20026;-85
2022/07/21 05:46:58;;;;;;;18.42;12.07;;;;;;;24.27;73.69;94723.59;5017586;28;20022;-85
2022/07/21 05:49:24;;;;;;;15.35;11.43;;;;;;;24.69;71.06;94726.84;5018004;28;20100;-85
2022/07/21 05:51:50;;;;;;;19.38;12.10;;;;;;;24.83;69.88;94731.78;5017663;28;20061;-85
2022/07/21 05:54:16;;;;;;;16.30;11.00;;;;;;;24.61;68.12;94725.91;5017514;28;20049;-85
2022/07/21 05:56:41;;;;;;;14.80;11.25;;;;;;;24.92;66.06;94726.97;5017704;28;20092;-85
2022/07/21 05:59:07;;;;;;;15.90;11.18;;;;;;;25.10;67.16;94730.03;5001096;28;20033;-86
2022/07/21 06:01:33;;;;;;;16.52;11.40;;;;;;;24.96;65.77;94730.53;5017418;28;20033;-86
2022/07/21 06:03:58;;;;;;;14.27;11.30;;;;;;;25.20;65.37;94728.69;5000932;28;20034;-86
2022/07/21 06:06:24;;;;;;;18.95;11.65;;;;;;;25.41;65.91;94740.97;5000833;28;20068;-85
2022/07/21 06:08:53;;;;;;;13.55;11.20;;;;;;;25.48;68.28;94738.44;5001178;28;20032;-85
2022/07/21 06:11:28;;;;;;;15.18;11.27;;;;;;;25.36;73.51;94728.63;5017051;28;20038;-85
2022/07/21 06:13:53;;;;;;;15.48;11.27;;;;;;;25.78;72.68;94734.41;5021258;28;20363;-83
2022/07/21 06:16:19;;;;;;;16.90;11.32;;;;;;;25.72;72.53;94735.81;5024116;28;20037;-83
2022/07/21 06:18:44;;;;;;;18.23;10.48;;;;;;;25.88;71.65;94736.47;5019956;28;20060;-83
2022/07/21 06:21:25;;;;;;;;;;;;;;;;;;;;;
2022/07/21 06:23:53;;;;;;;14.65;10.90;;;;;;;25.97;70.59;94736.28;5016958;28;20030;-83
2022/07/21 06:26:18;;;;;;;14.68;10.32;;;;;;;25.97;68.54;94734.34;5017003;28;20451;-82
2022/07/21 06:28:44;;;;;;;19.65;10.93;;;;;;;26.05;70.01;94743.28;5016903;28;20030;-82
2022/07/21 06:31:09;;;;;;;18.52;9.90;;;;;;;26.04;70.63;94741.75;5016840;28;20026;-82
2022/07/21 06:33:35;;;;;;;13.13;10.07;;;;;;;26.24;68.66;94739.00;5020073;28;20091;-83
2022/07/21 06:36:00;;;;;;;12.68;10.43;;;;;;;26.06;69.51;94742.16;5017815;28;20282;-83
2022/07/21 06:38:26;;;;;;;17.10;10.05;;;;;;;26.44;71.55;94741.63;5016684;28;20036;-83
2022/07/21 06:40:51;;;;;;;20.17;11.02;;;;;;;26.61;67.88;94734.97;5000563;28;20033;-83
2022/07/21 06:43:17;;;;;;;18.73;10.75;;;;;;;26.52;67.41;94744.06;5002259;28;20028;-83
2022/07/21 06:45:42;;;;;;;15.55;9.60;;;;;;;26.47;77.30;94735.53;5036355;28;20076;-83
2022/07/21 06:48:09;;;;;;;13.55;10.15;;;;;;;26.80;73.08;94728.72;5036284;28;20104;-83
2022/07/21 06:50:35;;;;;;;15.35;10.68;;;;;;;26.68;74.97;94729.69;5036313;28;20036;-83
2022/07/21 06:53:01;;;;;;;16.23;10.77;;;;;;;26.73;73.80;94734.00;5019879;28;20029;-83
2022/07/21 06:55:27;;;;;;;15.43;10.73;;;;;;;27.03;67.82;94730.59;5019885;28;20511;-83
2022/07/21 06:57:53;;;;;;;20.83;11.00;;;;;;;26.65;70.08;94727.75;5019812;28;20056;-88
2022/07/21 07:00:19;;;;;;;16.23;10.75;;;;;;;26.68;71.33;94729.69;5005421;28;20038;-88
2022/07/21 07:02:44;;;;;;;15.40;10.63;;;;;;;27.27;71.44;94734.72;5000188;28;20120;-88
2022/07/21 07:05:10;;;;;;;17.52;10.00;;;;;;;27.16;67.15;94737.28;5016839;28;20128;-88
2022/07/21 07:07:38;;;;;;;13.85;10.18;;;;;;;27.40;67.86;94731.78;5016540;28;20317;-88
2022/07/21 07:10:04;;;;;;;13.77;9.93;;;;;;;27.58;68.63;94738.16;5000657;28;20026;-88
2022/07/21 07:12:30;;;;;;;16.67;10.40;;;;;;;27.52;66.99;94728.84;5028551;28;20033;-89
2022/07/21 07:14:55;;;;;;;13.88;9.70;;;;;;;27.89;67.81;94738.84;5019375;28;20338;-88
2022/07/21 07:17:28;;;;;;;15.65;10.15;;;;;;;27.64;67.61;94733.22;5035754;28;20035;-88
2022/07/21 07:19:53;;;;;;;12.43;9.60;;;;;;;27.86;71.46;94733.44;5036194;28;20029;-88
2022/07/21 07:25:21;;;;;;;14.02;9.68;;;;;;;28.07;64.71;94740.94;5015420;28;20057;-88
2022/07/21 07:27:51;;;;;;;12.93;9.70;;;;;;;27.97;64.32;94739.69;5016288;28;20022;-87
2022/07/21 07:33:56;;;;;;;;;;;;;;;;;;;;;
2022/07/21 07:36:52;;;;;;;;;;;;;;;;;;;;;
2022/07/21 07:39:20;;;;;;;11.93;8.57;;;;;;;28.51;60.09;94739.38;5016997;28;20013;-88
2022/07/21 07:42:29;;;;;;;11.02;8.60;;;;;;;28.58;56.95;94738.66;5016063;28;20104;-88
2022/07/21 07:45:41;;;;;;;19.48;9.60;;;;;;;28.83;56.20;94738.84;5009594;28;20044;-89
2022/07/21 07:48:36;;;;;;;13.00;8.60;;;;;;;29.21;54.03;94739.44;5015918;28;20435;-89
2022/07/21 07:54:03;;;;;;;17.00;8.95;;;;;;;29.49;56.69;94739.97;5035299;28;20033;-89
2022/07/21 07:56:38;;;;;;;;;;;;;;;;;;;;;
2022/07/21 07:59:04;;;;;;;11.50;7.55;;;;;;;29.51;56.17;94726.06;5035725;28;20017;-89
2022/07/21 08:01:34;;;;;;;10.77;7.55;;;;;;;29.65;50.68;94731.50;5035727;28;20125;-88
2022/07/21 08:03:59;;;;;;;17.10;8.10;;;;;;;29.65;53.25;94731.50;5035185;28;20041;-90
2022/07/21 08:06:25;;;;;;;12.30;7.68;;;;;;;29.85;52.29;94734.63;5035132;28;20021;-90
2022/07/21 08:08:51;;;;;;;13.68;7.57;;;;;;;30.01;52.41;94736.19;5020545;28;20037;-89
2022/07/21 08:11:17;;;;;;;20.27;7.55;;;;;;;30.28;50.43;94727.75;5001968;28;20025;-89
2022/07/21 08:13:42;;;;;;;14.13;7.40;;;;;;;30.41;49.40;94737.00;5015313;28;20033;-90
2022/07/21 08:16:08;;;;;;;14.88;7.50;;;;;;;30.21;49.39;94738.56;5014919;28;20065;-89
2022/07/21 08:18:34;;;;;;;12.98;7.75;;;;;;;30.27;49.26;94740.50;5015349;28;20026;-89
2022/07/21 08:21:30;;;;;;;;;;;;;;;;;;;;;
2022/07/21 08:24:08;;;;;;;14.57;7.10;;;;;;;30.58;48.50;94735.47;5014374;28;20018;-89
2022/07/21 08:26:51;;;;;;;14.60;7.10;;;;;;;30.45;47.34;94731.59;5015566;28;20022;-89
2022/07/21 08:29:19;;;;;;;12.45;6.53;;;;;;;30.73;46.53;94730.06;5015724;28;20100;-90
2022/07/21 08:31:47;;;;;;;9.75;6.60;;;;;;;30.87;47.82;94732.72;5015361;28;20447;-89
2022/07/21 08:34:12;;;;;;;11.98;6.32;;;;;;;31.01;46.42;94739.25;5015116;28;20081;-89
2022/07/21 08:36:38;;;;;;;9.38;6.32;;;;;;;30.97;45.93;94733.84;5015485;28;20447;-88
2022/07/21 08:39:03;;;;;;;18.15;7.10;;;;;;;30.99;45.05;94736.19;4999618;28;20088;-90
2022/07/21 08:41:31;;;;;;;11.15;6.55;;;;;;;30.94;45.88;94731.16;5017495;28;20034;-89
2022/07/21 08:43:56;;;;;;;12.07;6.80;;;;;;;31.01;46.15;94736.56;5002512;28;20065;-90
2022/07/21 08:46:23;;;;;;;9.00;6.68;;;;;;;31.15;45.52;94733.81;5018853;28;20061;-89
2022/07/21 08:48:50;;;;;;;11.95;7.38;;;;;;;31.15;44.83;94735.72;5002667;28;20036;-87
2022/07/21 08:51:16;;;;;;;8.48;6.10;;;;;;;31.18;44.89;94733.00;5002583;28;20057;-88
2022/07/21 08:53:48;;;;;;;16.52;7.38;;;;;;;31.11;45.40;94734.97;5019114;28;20034;-87
2022/07/21 08:56:14;;;;;;;11.88;6.88;;;;;;;31.29;43.53;94734.94;5018739;28;20053;-87
2022/07/21 08:58:39;;;;;;;12.65;7.15;;;;;;;31.25;43.97;94734.97;5019157;28;20057;-88
2022/07/21 09:01:05;;;;;;;8.95;6.43;;;;;;;31.28;43.50;94731.47;5018843;28;20041;-88
2022/07/21 09:03:32;;;;;;;12.57;7.43;;;;;;;31.48;44.09;94728.25;5018424;28;20104;-90
2022/07/21 09:06:15;;;;;;;13.23;7.65;;;;;;;31.79;44.27;94736.66;5018352;28;20439;-89
2022/07/21 09:08:54;;;;;;;17.67;7.10;;;;;;;31.87;44.71;94734.66;5003117;28;20033;-88
2022/07/21 09:11:26;;;;;;;11.63;6.60;;;;;;;32.07;46.53;94732.22;5019200;28;20021;-90
2022/07/21 09:14:12;;;;;;;10.52;6.43;;;;;;;31.97;44.04;94731.09;5008353;28;20030;-89
2022/07/21 09:16:40;;;;;;;15.77;7.82;;;;;;;31.71;43.67;94730.47;5018190;28;20374;-89
2022/07/21 09:19:07;;;;;;;12.70;7.95;;;;;;;32.01;43.67;94731.88;5018777;28;20021;-90
2022/07/21 09:21:36;;;;;;;11.35;6.72;;;;;;;32.24;43.94;94733.22;5002114;28;20462;-89
2022/07/21 09:24:21;;;;;;;18.05;9.80;;;;;;;32.16;43.21;94729.06;5018002;28;20030;-89
2022/07/21 09:26:57;;;;;;;83.47;52.00;;;;;;;31.89;46.56;94732.34;5018707;28;20061;-90
2022/07/21 09:29:25;;;;;;;218.50;162.27;;;;;;;31.80;43.68;94724.66;5002011;28;20025;-89
2022/07/21 09:31:51;;;;;;;35.05;21.70;;;;;;;31.71;44.78;94721.56;5018271;28;20026;-89
2022/07/21 09:34:17;;;;;;;24.50;13.35;;;;;;;31.80;43.87;94721.94;5038812;28;20025;-90
2022/07/21 09:37:07;;;;;;;13.15;6.95;;;;;;;31.85;44.19;94721.50;5020795;28;20335;-88
2022/07/21 09:40:08;;;;;;;10.90;7.05;;;;;;;31.90;44.32;94716.84;5002128;28;20033;-91
2022/07/21 09:42:54;;;;;;;11.05;7.32;;;;;;;31.68;43.34;94725.09;5018666;28;20029;-91
2022/07/21 09:45:19;;;;;;;11.52;7.63;;;;;;;31.95;43.76;94713.72;5017820;28;20028;-90
2022/07/21 09:47:47;;;;;;;15.95;7.10;;;;;;;32.08;44.30;94720.22;5001907;28;20022;-89
2022/07/21 09:50:16;;;;;;;14.68;8.32;;;;;;;31.98;43.38;94710.22;5001500;28;20060;-89
2022/07/21 09:52:49;;;;;;;14.70;7.50;;;;;;;31.85;43.19;94718.81;5000450;28;20033;-90
2022/07/21 09:55:31;;;;;;;;;;;;;;;;;;;;;
2022/07/21 09:58:00;;;;;;;14.50;8.10;;;;;;;31.84;43.22;94711.84;5018698;28;20022;-90
2022/07/21 10:00:36;;;;;;;11.75;7.85;;;;;;;31.84;42.78;94711.84;5001056;28;20021;-89
2022/07/21 10:03:05;;;;;;;13.00;7.80;;;;;;;31.97;43.38;94706.72;5001195;28;20057;-91
2022/07/21 10:05:43;;;;;;;;;;;;;;;;;;;;;
2022/07/21 10:08:12;;;;;;;12.63;8.30;;;;;;;32.42;41.71;94714.13;5017418;28;20010;-89
2022/07/21 10:10:37;;;;;;;12.75;8.55;;;;;;;32.18;41.85;94715.88;5017548;28;20072;-89
2022/07/21 10:13:03;;;;;;;15.68;8.82;;;;;;;32.14;42.14;94713.19;5000913;28;20026;-89
2022/07/21 10:15:29;;;;;;;14.68;8.68;;;;;;;32.32;41.58;94712.25;5017338;28;20026;-90
2022/07/21 10:17:55;;;;;;;14.02;8.10;;;;;;;32.16;41.88;94710.84;5000967;28;20435;-90
2022/07/21 10:20:35;;;;;;;18.60;8.80;;;;;;;32.10;42.13;94711.66;5017104;28;20032;-89
2022/07/21 10:23:14;;;;;;;17.42;8.70;;;;;;;32.58;40.88;94707.41;5017002;28;20026;-88
2022/07/21 10:25:41;;;;;;;13.13;8.60;;;;;;;32.74;42.00;94709.59;5001171;28;20511;-89
2022/07/21 10:28:10;;;;;;;12.77;8.02;;;;;;;32.80;42.18;94715.34;5017243;28;20040;-89
2022/07/21 10:30:43;;;;;;;20.70;8.75;;;;;;;32.89;41.52;94709.44;5017224;28;20137;-90
2022/07/21 10:33:09;;;;;;;14.50;9.07;;;;;;;32.85;40.36;94715.69;5000109;28;20034;-87
2022/07/21 10:35:43;;;;;;;13.73;8.70;;;;;;;32.76;40.40;94712.66;5001013;28;20041;-87
2022/07/21 10:38:29;;;;;;;14.50;8.57;;;;;;;32.29;42.52;94713.06;5017097;28;20329;-88
2022/07/21 10:40:56;;;;;;;18.02;8.13;;;;;;;32.60;42.59;94712.44;5018453;28;20399;-87
2022/07/21 10:43:24;;;;;;;16.83;8.73;;;;;;;32.63;43.70;94708.91;5001501;28;20030;-88
2022/07/21 10:45:51;;;;;;;10.52;7.15;;;;;;;32.67;42.63;94707.72;5017098;28;20026;-87
2022/07/21 10:48:41;;;;;;;13.02;8.18;;;;;;;32.67;43.48;94713.13;5016782;28;20445;-87
2022/07/21 10:51:08;;;;;;;15.20;7.95;;;;;;;32.96;43.56;94709.38;5017675;28;20462;-87
2022/07/21 10:53:34;;;;;;;14.00;7.53;;;;;;;33.31;42.91;94706.63;5000261;28;20439;-87
2022/07/21 10:55:59;;;;;;;13.77;7.68;;;;;;;33.32;43.51;94703.53;5017867;28;20080;-87
2022/07/21 10:58:26;;;;;;;12.48;7.80;;;;;;;32.71;43.51;94708.44;5000448;28;20021;-87
2022/07/21 11:00:56;;;;;;;15.38;7.30;;;;;;;33.03;43.66;94701.16;5017506;28;20030;-87
2022/07/21 11:03:37;;;;;;;16.00;7.00;;;;;;;32.80;44.02;94705.25;5017517;28;20060;-87
2022/07/21 11:06:06;;;;;;;17.50;7.13;;;;;;;32.99;45.26;94711.28;5016771;28;20032;-87
2022/07/21 11:08:33;;;;;;;15.85;6.82;;;;;;;33.38;43.48;94701.88;5016481;28;20034;-87
2022/07/21 11:11:10;;;;;;;13.25;7.28;;;;;;;33.26;43.50;94705.13;5017702;28;20021;-87
2022/07/21 11:14:12;;;;;;;14.00;6.82;;;;;;;33.30;43.28;94703.16;5015829;28;20032;-87
2022/07/21 11:16:49;;;;;;;14.70;6.93;;;;;;;33.25;43.87;94706.31;5016252;28;20044;-87
2022/07/21 11:19:34;;;;;;;13.15;6.78;;;;;;;33.08;44.17;94703.41;5016389;28;20034;-87
2022/07/21 11:22:09;;;;;;;14.50;6.85;;;;;;;33.25;43.41;94704.38;5016183;28;20029;-89
2022/07/21 11:24:40;;;;;;;14.70;7.10;;;;;;;32.96;43.50;94699.31;5015974;28;20028;-88
2022/07/21 11:27:23;;;;;;;13.30;7.82;;;;;;;33.20;43.50;94701.34;5016039;28;20029;-88
2022/07/21 11:29:51;;;;;;;11.07;7.40;;;;;;;33.22;43.52;94701.72;5016087;28;20026;-88
2022/07/21 11:32:18;;;;;;;12.32;6.97;;;;;;;33.17;43.92;94700.22;5000055;28;20033;-88
2022/07/21 11:34:56;;;;;;;15.80;7.88;;;;;;;32.72;43.61;94701.09;5016026;28;20453;-87
2022/07/21 11:37:43;;;;;;;20.67;7.55;;;;;;;32.95;43.76;94697.75;5016837;28;20079;-88
2022/07/21 11:40:12;;;;;;;10.57;6.88;;;;;;;33.23;43.33;94695.09;5004246;28;20030;-88
2022/07/21 11:42:38;;;;;;;15.85;7.43;;;;;;;33.27;43.40;94687.66;5015417;28;20026;-87
2022/07/21 11:45:06;;;;;;;13.50;7.18;;;;;;;33.40;43.19;94691.38;5015917;28;20335;-88
2022/07/21 11:47:32;;;;;;;16.25;6.45;;;;;;;33.55;43.81;94692.00;5015875;28;20037;-87
2022/07/21 11:50:00;;;;;;;13.10;7.55;;;;;;;33.72;43.64;94689.44;5016173;28;20062;-88